Killin, United Kingdom
Current Conditions -  °F | °C
As of 9:50 PM on Monday 20 Oct 2014 (Local Time) from EGPF Reporting Station
Overcast Overcast  
Wind Chill: 13°   Ceiling: 1500
Heat Index: 13°   Visibility: 6mi
Dew Point: 11°   Wind: 18mph
Humidity: 88%   Direction: 190°S
Pressure: 29.47"   Gusts: NA
Location:  56.45°N, 4.33°W
Report Text: EGPF 202050Z AUTO 19016KT 9999 BKN015/// OVC025/// //////CB 13/11 Q0998
Loading
Personal Weather Stations






























Interactive Weather Map
Tropical Storm Tracking
New forecast layout! Learn more

10-Day Weather Forecast

Advertisements
Track Severe Weather on mobile